Time,TemperatureF,DewpointF,PressureIn,WindDirection,WindDirectionDegrees,WindSpeedMPH,WindSpeedGustMPH,Humidity,HourlyPrecipIn,Conditions,Clouds,dailyrainin,SoftwareType,DateUTC
2013-02-09 00:02:00,16.0,11.0,29.84,ENE,68,15.0,25.0,80,0.00,,,0.00,,2013-02-09 05:02:00,
2013-02-09 00:12:00,16.0,11.0,29.84,ENE,68,15.0,25.0,80,0.00,,,0.00,,2013-02-09 05:12:00,
2013-02-09 00:22:00,16.0,11.0,29.85,ENE,68,18.0,25.0,79,0.00,,,0.00,,2013-02-09 05:22:00,
2013-02-09 00:32:00,16.0,11.0,29.83,ENE,68,16.0,22.0,80,0.00,,,0.00,,2013-02-09 05:32:00,
2013-02-09 00:42:00,16.0,11.0,29.83,ENE,68,16.0,22.0,80,0.00,,,0.00,,2013-02-09 05:42:00,
2013-02-09 00:52:00,16.0,11.0,29.81,ENE,68,17.0,23.0,80,0.00,,,0.00,,2013-02-09 05:52:00,
2013-02-09 01:01:00,16.0,11.0,29.80,ENE,68,26.0,35.0,80,0.00,,,0.00,,2013-02-09 06:01:00,
2013-02-09 01:11:00,16.0,11.0,29.80,ENE,68,26.0,35.0,80,0.00,,,0.00,,2013-02-09 06:11:00,
2013-02-09 01:21:00,15.0,10.0,29.78,NE,45,18.0,24.0,80,0.00,,,0.00,,2013-02-09 06:21:00,
2013-02-09 01:32:00,15.0,10.0,29.75,ENE,68,17.0,28.0,81,0.00,,,0.00,,2013-02-09 06:32:00,
2013-02-09 01:42:00,15.0,10.0,29.75,ENE,68,17.0,28.0,81,0.00,,,0.00,,2013-02-09 06:42:00,
2013-02-09 01:52:00,15.0,10.0,29.74,ENE,68,22.0,32.0,81,0.00,,,0.00,,2013-02-09 06:52:00,
2013-02-09 02:01:00,14.0,10.0,29.71,NE,45,22.0,30.0,82,0.00,,,0.00,,2013-02-09 07:01:00,
2013-02-09 02:11:00,14.0,10.0,29.71,NE,45,22.0,30.0,82,0.00,,,0.00,,2013-02-09 07:11:00,
2013-02-09 02:21:00,14.0,10.0,29.70,ENE,68,28.0,35.0,82,0.00,,,0.00,,2013-02-09 07:21:00,
2013-02-09 02:31:00,15.0,10.0,29.70,NE,45,12.0,14.0,81,0.00,,,0.00,,2013-02-09 07:31:00,
2013-02-09 02:42:00,15.0,10.0,29.70,NE,45,12.0,14.0,81,0.00,,,0.00,,2013-02-09 07:42:00,
2013-02-09 02:52:00,14.0,10.0,29.66,ENE,68,20.0,35.0,82,0.00,,,0.00,,2013-02-09 07:52:00,
2013-02-09 03:01:00,14.0,10.0,29.65,NE,45,16.0,29.0,82,0.00,,,0.00,,2013-02-09 08:01:00,
2013-02-09 03:11:00,14.0,10.0,29.65,NE,45,16.0,29.0,82,0.00,,,0.00,,2013-02-09 08:11:00,
2013-02-09 03:21:00,14.0,10.0,29.63,NE,45,13.0,26.0,83,0.00,,,0.00,,2013-02-09 08:21:00,
2013-02-09 03:31:00,13.0,9.0,29.62,NNE,23,26.0,51.0,83,0.00,,,0.00,,2013-02-09 08:31:00,
2013-02-09 03:42:00,13.0,9.0,29.62,NNE,23,26.0,51.0,83,0.00,,,0.00,,2013-02-09 08:42:00,
2013-02-09 03:52:00,13.0,9.0,29.61,NE,45,14.0,29.0,84,0.00,,,0.00,,2013-02-09 08:52:00,
2013-02-09 04:03:00,13.0,9.0,29.60,NE,45,20.0,31.0,83,0.00,,,0.00,,2013-02-09 09:03:00,
2013-02-09 04:11:00,13.0,9.0,29.60,NE,45,20.0,31.0,83,0.00,,,0.00,,2013-02-09 09:11:00,
2013-02-09 04:21:00,12.0,8.0,29.60,NE,45,28.0,55.0,84,0.00,,,0.00,,2013-02-09 09:21:00,
2013-02-09 04:32:00,12.0,8.0,29.60,NE,45,10.0,21.0,84,0.00,,,0.00,,2013-02-09 09:32:00,
2013-02-09 04:42:00,12.0,8.0,29.60,NE,45,10.0,21.0,84,0.00,,,0.00,,2013-02-09 09:42:00,
2013-02-09 04:52:00,12.0,8.0,29.61,ENE,68,13.0,22.0,83,0.00,,,0.00,,2013-02-09 09:52:00,
2013-02-09 05:01:00,13.0,9.0,29.60,NE,45,29.0,41.0,83,0.00,,,0.00,,2013-02-09 10:01:00,
2013-02-09 05:11:00,13.0,9.0,29.60,NE,45,29.0,41.0,83,0.00,,,0.00,,2013-02-09 10:11:00,
2013-02-09 05:21:00,13.0,9.0,29.61,NE,45,21.0,36.0,83,0.00,,,0.00,,2013-02-09 10:21:00,
2013-02-09 05:32:00,13.0,9.0,29.61,NE,45,30.0,56.0,83,0.00,,,0.00,,2013-02-09 10:32:00,
2013-02-09 05:42:00,13.0,9.0,29.61,NE,45,30.0,56.0,83,0.00,,,0.00,,2013-02-09 10:42:00,
2013-02-09 05:52:00,12.0,8.0,29.60,NNE,23,21.0,28.0,84,0.00,,,0.00,,2013-02-09 10:52:00,
2013-02-09 06:01:00,12.0,8.0,29.58,NNE,23,25.0,45.0,83,0.00,,,0.00,,2013-02-09 11:01:00,
2013-02-09 06:11:00,12.0,8.0,29.58,NNE,23,25.0,45.0,83,0.00,,,0.00,,2013-02-09 11:11:00,
2013-02-09 06:22:00,12.0,8.0,29.60,NE,45,21.0,30.0,84,0.00,,,0.00,,2013-02-09 11:22:00,
2013-02-09 06:32:00,12.0,8.0,29.60,North,0,13.0,23.0,83,0.00,,,0.00,,2013-02-09 11:32:00,
2013-02-09 06:41:00,12.0,8.0,29.60,North,0,13.0,23.0,83,0.00,,,0.00,,2013-02-09 11:41:00,
2013-02-09 06:52:00,12.0,8.0,29.61,NNE,23,29.0,52.0,83,0.00,,,0.00,,2013-02-09 11:52:00,
2013-02-09 07:02:00,13.0,9.0,29.61,NNE,23,28.0,49.0,82,0.00,,,0.00,,2013-02-09 12:02:00,
2013-02-09 07:11:00,13.0,9.0,29.61,NNE,23,28.0,49.0,82,0.00,,,0.00,,2013-02-09 12:11:00,
2013-02-09 07:22:00,13.0,9.0,29.62,NE,45,36.0,62.0,82,0.00,,,0.00,,2013-02-09 12:22:00,
2013-02-09 07:32:00,13.0,9.0,29.62,NE,45,24.0,44.0,83,0.00,,,0.00,,2013-02-09 12:32:00,
2013-02-09 07:42:00,13.0,9.0,29.62,NE,45,24.0,44.0,83,0.00,,,0.00,,2013-02-09 12:42:00,
2013-02-09 07:52:00,13.0,9.0,29.61,NNE,23,15.0,31.0,82,0.00,,,0.00,,2013-02-09 12:52:00,
2013-02-09 08:02:00,13.0,9.0,29.62,NNE,23,36.0,53.0,82,0.00,,,0.00,,2013-02-09 13:02:00,
2013-02-09 08:11:00,13.0,9.0,29.62,NNE,23,36.0,53.0,82,0.00,,,0.00,,2013-02-09 13:11:00,
2013-02-09 08:22:00,13.0,9.0,29.62,North,0,31.0,60.0,82,0.00,,,0.00,,2013-02-09 13:22:00,
2013-02-09 08:32:00,13.0,9.0,29.62,NE,45,24.0,41.0,82,0.00,,,0.00,,2013-02-09 13:32:00,
2013-02-09 08:42:00,13.0,9.0,29.62,NE,45,24.0,41.0,82,0.00,,,0.00,,2013-02-09 13:42:00,
2013-02-09 08:52:00,13.0,9.0,29.62,NNE,23,12.0,21.0,83,0.00,,,0.00,,2013-02-09 13:52:00,
2013-02-09 09:01:00,13.0,9.0,29.63,NE,45,18.0,26.0,82,0.00,,,0.00,,2013-02-09 14:01:00,
2013-02-09 09:11:00,13.0,9.0,29.63,NE,45,18.0,26.0,82,0.00,,,0.00,,2013-02-09 14:11:00,
2013-02-09 09:21:00,13.0,9.0,29.64,ENE,68,15.0,37.0,82,0.00,,,0.00,,2013-02-09 14:21:00,
2013-02-09 09:32:00,13.0,9.0,29.64,NNE,23,29.0,44.0,82,0.00,,,0.00,,2013-02-09 14:32:00,
2013-02-09 09:42:00,13.0,9.0,29.64,NNE,23,29.0,44.0,82,0.00,,,0.00,,2013-02-09 14:42:00,
2013-02-09 09:52:00,13.0,9.0,29.64,North,0,18.0,32.0,83,0.00,,,0.00,,2013-02-09 14:52:00,
2013-02-09 10:02:00,13.0,9.0,29.65,NNE,23,25.0,43.0,83,0.00,,,0.00,,2013-02-09 15:02:00,
2013-02-09 10:11:00,13.0,9.0,29.65,NNE,23,25.0,43.0,83,0.00,,,0.00,,2013-02-09 15:11:00,
2013-02-09 10:21:00,13.0,9.0,29.65,NNE,23,17.0,29.0,83,0.00,,,0.00,,2013-02-09 15:21:00,
2013-02-09 10:32:00,14.0,10.0,29.65,NE,45,23.0,45.0,83,0.00,,,0.00,,2013-02-09 15:32:00,
2013-02-09 10:42:00,14.0,10.0,29.65,NE,45,23.0,45.0,83,0.00,,,0.00,,2013-02-09 15:42:00,
2013-02-09 10:52:00,14.0,12.0,29.66,NE,45,18.0,37.0,90,0.00,,,0.00,,2013-02-09 15:52:00,
2013-02-09 11:01:00,14.0,10.0,29.65,NNE,23,13.0,26.0,83,0.00,,,0.00,,2013-02-09 16:01:00,
2013-02-09 11:11:00,14.0,10.0,29.65,NNE,23,13.0,26.0,83,0.00,,,0.00,,2013-02-09 16:11:00,
2013-02-09 11:22:00,14.0,10.0,29.65,NE,45,14.0,17.0,84,0.00,,,0.00,,2013-02-09 16:22:00,
2013-02-09 11:32:00,14.0,10.0,29.65,North,0,15.0,33.0,83,0.00,,,0.00,,2013-02-09 16:32:00,
2013-02-09 11:42:00,14.0,10.0,29.65,North,0,15.0,33.0,83,0.00,,,0.00,,2013-02-09 16:42:00,
2013-02-09 11:52:00,14.0,10.0,29.65,NE,45,13.0,29.0,83,0.00,,,0.00,,2013-02-09 16:52:00,
2013-02-09 12:01:00,14.0,10.0,29.65,NNE,23,15.0,31.0,83,0.00,,,0.00,,2013-02-09 17:01:00,
2013-02-09 12:11:00,14.0,10.0,29.65,NNE,23,15.0,31.0,83,0.00,,,0.00,,2013-02-09 17:11:00,
2013-02-09 12:21:00,14.0,10.0,29.65,North,0,7.0,17.0,83,0.00,,,0.00,,2013-02-09 17:21:00,
2013-02-09 12:32:00,15.0,11.0,29.65,NE,45,9.0,20.0,83,0.00,,,0.00,,2013-02-09 17:32:00,
2013-02-09 12:42:00,15.0,11.0,29.65,NE,45,9.0,20.0,83,0.00,,,0.00,,2013-02-09 17:42:00,
2013-02-09 12:52:00,15.0,11.0,29.66,NNE,23,10.0,16.0,82,0.00,,,0.00,,2013-02-09 17:52:00,
2013-02-09 13:02:00,15.0,11.0,29.67,NE,45,7.0,13.0,83,0.00,,,0.00,,2013-02-09 18:02:00,
2013-02-09 13:12:00,15.0,11.0,29.67,NE,45,7.0,13.0,83,0.00,,,0.00,,2013-02-09 18:12:00,
2013-02-09 13:23:00,15.0,11.0,29.67,NE,45,7.0,13.0,84,0.00,,,0.00,,2013-02-09 18:23:00,
2013-02-09 13:32:00,15.0,11.0,29.68,North,0,12.0,21.0,84,0.00,,,0.00,,2013-02-09 18:32:00,
2013-02-09 13:42:00,15.0,11.0,29.68,North,0,12.0,21.0,84,0.00,,,0.00,,2013-02-09 18:42:00,
2013-02-09 13:52:00,15.0,11.0,29.69,NNE,23,8.0,17.0,83,0.00,,,0.00,,2013-02-09 18:52:00,
2013-02-09 14:01:00,16.0,12.0,29.70,NNE,23,20.0,26.0,84,0.00,,,0.00,,2013-02-09 19:01:00,
2013-02-09 14:11:00,16.0,12.0,29.70,NNE,23,20.0,26.0,84,0.00,,,0.00,,2013-02-09 19:11:00,
2013-02-09 14:22:00,16.0,12.0,29.71,North,0,10.0,20.0,83,0.00,,,0.00,,2013-02-09 19:22:00,
2013-02-09 14:32:00,16.0,12.0,29.73,North,0,17.0,26.0,83,0.00,,,0.00,,2013-02-09 19:32:00,
2013-02-09 14:42:00,16.0,12.0,29.73,North,0,17.0,26.0,83,0.00,,,0.00,,2013-02-09 19:42:00,
2013-02-09 14:52:00,16.0,12.0,29.74,NNE,23,9.0,16.0,83,0.00,,,0.00,,2013-02-09 19:52:00,
2013-02-09 15:01:00,16.0,12.0,29.76,NNE,23,14.0,20.0,83,0.00,,,0.00,,2013-02-09 20:01:00,
2013-02-09 15:11:00,16.0,12.0,29.76,NNE,23,14.0,20.0,83,0.00,,,0.00,,2013-02-09 20:11:00,
2013-02-09 15:21:00,15.0,11.0,29.77,North,0,5.0,8.0,83,0.00,,,0.00,,2013-02-09 20:21:00,
2013-02-09 15:32:00,15.0,11.0,29.78,North,0,7.0,9.0,83,0.00,,,0.00,,2013-02-09 20:32:00,
2013-02-09 15:42:00,15.0,11.0,29.78,North,0,7.0,9.0,83,0.00,,,0.00,,2013-02-09 20:42:00,
2013-02-09 15:52:00,15.0,11.0,29.80,NNE,23,20.0,32.0,82,0.00,,,0.00,,2013-02-09 20:52:00,
2013-02-09 16:02:00,15.0,10.0,29.81,North,0,18.0,24.0,81,0.00,,,0.00,,2013-02-09 21:02:00,
2013-02-09 16:12:00,15.0,10.0,29.81,North,0,18.0,24.0,81,0.00,,,0.00,,2013-02-09 21:12:00,
2013-02-09 16:21:00,16.0,11.0,29.82,NNE,23,8.0,12.0,81,0.00,,,0.00,,2013-02-09 21:21:00,
2013-02-09 16:32:00,16.0,11.0,29.83,North,0,7.0,12.0,80,0.00,,,0.00,,2013-02-09 21:32:00,
2013-02-09 16:42:00,16.0,11.0,29.83,North,0,7.0,12.0,80,0.00,,,0.00,,2013-02-09 21:42:00,
2013-02-09 16:52:00,16.0,11.0,29.83,North,0,5.0,12.0,80,0.00,,,0.00,,2013-02-09 21:52:00,
2013-02-09 17:01:00,16.0,11.0,29.85,North,0,6.0,10.0,81,0.00,,,0.00,,2013-02-09 22:01:00,
2013-02-09 17:11:00,16.0,11.0,29.85,North,0,6.0,10.0,81,0.00,,,0.00,,2013-02-09 22:11:00,
2013-02-09 17:21:00,17.0,12.0,29.85,North,0,10.0,21.0,81,0.00,,,0.00,,2013-02-09 22:21:00,
2013-02-09 17:32:00,16.0,11.0,29.87,North,0,5.0,6.0,82,0.00,,,0.00,,2013-02-09 22:32:00,
2013-02-09 17:42:00,16.0,11.0,29.87,North,0,5.0,6.0,82,0.00,,,0.00,,2013-02-09 22:42:00,
2013-02-09 17:52:00,16.0,11.0,29.88,North,0,17.0,33.0,82,0.00,,,0.00,,2013-02-09 22:52:00,
2013-02-09 18:02:00,16.0,11.0,29.89,North,0,7.0,12.0,82,0.00,,,0.00,,2013-02-09 23:02:00,
2013-02-09 18:11:00,16.0,11.0,29.89,North,0,7.0,12.0,82,0.00,,,0.00,,2013-02-09 23:11:00,
2013-02-09 18:21:00,16.0,11.0,29.90,North,0,9.0,16.0,82,0.00,,,0.00,,2013-02-09 23:21:00,
2013-02-09 18:32:00,16.0,11.0,29.91,NNE,23,20.0,28.0,82,0.00,,,0.00,,2013-02-09 23:32:00,
2013-02-09 18:42:00,16.0,11.0,29.91,NNE,23,20.0,28.0,82,0.00,,,0.00,,2013-02-09 23:42:00,
2013-02-09 18:52:00,16.0,12.0,29.92,North,0,5.0,10.0,83,0.00,,,0.00,,2013-02-09 23:52:00,
2013-02-09 19:02:00,16.0,12.0,29.92,North,0,7.0,14.0,83,0.00,,,0.00,,2013-02-10 00:02:00,
2013-02-09 19:12:00,16.0,12.0,29.92,North,0,7.0,14.0,83,0.00,,,0.00,,2013-02-10 00:12:00,
2013-02-09 19:22:00,16.0,12.0,29.92,North,0,6.0,9.0,83,0.00,,,0.00,,2013-02-10 00:22:00,
2013-02-09 19:32:00,16.0,12.0,29.93,North,0,6.0,12.0,84,0.00,,,0.00,,2013-02-10 00:32:00,
2013-02-09 19:42:00,16.0,12.0,29.93,North,0,6.0,12.0,84,0.00,,,0.00,,2013-02-10 00:42:00,
2013-02-09 19:51:00,16.0,12.0,29.93,North,0,5.0,9.0,85,0.00,,,0.00,,2013-02-10 00:51:00,
2013-02-09 20:01:00,17.0,13.0,29.93,North,0,8.0,15.0,85,0.00,,,0.00,,2013-02-10 01:01:00,
2013-02-09 20:12:00,17.0,13.0,29.93,North,0,8.0,15.0,85,0.00,,,0.00,,2013-02-10 01:12:00,
2013-02-09 20:22:00,17.0,14.0,29.94,NNE,23,10.0,26.0,86,0.00,,,0.00,,2013-02-10 01:22:00,
2013-02-09 20:32:00,17.0,14.0,29.95,North,0,7.0,16.0,86,0.00,,,0.00,,2013-02-10 01:32:00,
2013-02-09 20:42:00,17.0,14.0,29.95,North,0,7.0,16.0,86,0.00,,,0.00,,2013-02-10 01:42:00,
2013-02-09 20:52:00,17.0,14.0,29.95,North,0,12.0,17.0,86,0.00,,,0.00,,2013-02-10 01:52:00,
2013-02-09 21:01:00,17.0,14.0,29.96,North,0,21.0,32.0,86,0.00,,,0.00,,2013-02-10 02:01:00,
2013-02-09 21:11:00,17.0,14.0,29.96,North,0,21.0,32.0,86,0.00,,,0.00,,2013-02-10 02:11:00,
2013-02-09 21:22:00,17.0,13.0,29.97,North,0,5.0,12.0,85,0.00,,,0.00,,2013-02-10 02:22:00,
2013-02-09 21:32:00,17.0,13.0,29.97,NNW,338,17.0,45.0,85,0.00,,,0.00,,2013-02-10 02:32:00,
2013-02-09 21:42:00,17.0,13.0,29.97,NNW,338,17.0,45.0,85,0.00,,,0.00,,2013-02-10 02:42:00,
2013-02-09 21:52:00,17.0,13.0,29.98,NE,45,2.0,3.0,84,0.00,,,0.00,,2013-02-10 02:52:00,
2013-02-09 22:02:00,17.0,13.0,29.98,North,0,9.0,16.0,84,0.00,,,0.00,,2013-02-10 03:02:00,
2013-02-09 22:11:00,17.0,13.0,29.98,North,0,9.0,16.0,84,0.00,,,0.00,,2013-02-10 03:11:00,
2013-02-09 22:21:00,17.0,13.0,29.99,NNE,23,15.0,30.0,83,0.00,,,0.00,,2013-02-10 03:21:00,
2013-02-09 22:32:00,17.0,13.0,29.99,North,0,13.0,21.0,83,0.00,,,0.00,,2013-02-10 03:32:00,
2013-02-09 22:42:00,17.0,13.0,29.99,North,0,13.0,21.0,83,0.00,,,0.00,,2013-02-10 03:42:00,
2013-02-09 22:52:00,17.0,13.0,30.00,North,0,13.0,23.0,83,0.00,,,0.00,,2013-02-10 03:52:00,
2013-02-09 23:01:00,17.0,12.0,30.01,NNW,338,12.0,23.0,82,0.00,,,0.00,,2013-02-10 04:01:00,
2013-02-09 23:11:00,17.0,12.0,30.01,NNW,338,12.0,23.0,82,0.00,,,0.00,,2013-02-10 04:11:00,
2013-02-09 23:22:00,17.0,12.0,30.01,North,0,7.0,15.0,81,0.00,,,0.00,,2013-02-10 04:22:00,
2013-02-09 23:32:00,17.0,12.0,30.03,North,0,6.0,13.0,80,0.00,,,0.00,,2013-02-10 04:32:00,
2013-02-09 23:42:00,17.0,12.0,30.03,North,0,6.0,13.0,80,0.00,,,0.00,,2013-02-10 04:42:00,
2013-02-09 23:52:00,17.0,12.0,30.03,North,0,5.0,9.0,80,0.00,,,0.00,,2013-02-10 04:52:00,